Philadelphia, Pennsylvania
Traffic Map
Current Weather Conditions
Philadelphia, Pennsylvania
Broken Clouds Haze
Broken Clouds
71°
Feels Like: 71°
Wind Chill: 71° Ceiling: 25000
Heat Index: 71° Visibility: 3mi
Dew Point: 70° Wind: 0mph
Humidity: 96% Direction: ° ()
Pressure: 29.84in Gusts: 0mph
Raw Report DataKPHL 241045Z 00000KT 3SM BR SCT004 BKN250 22/21 A2984 RMK AO2 T02170211
Traffic Incident Summary
Active as of:
Severity:
Category:
InformationThere was an issue retrieving the traffic information for this location. Please try a different location or try again shortly.
Advertisements